x

Western Prince William Sound (46081) Weather Station

5:50am - Sat 29th Nov 2014 All times are UTC.

  • Average Period 3s
  • Wind
    2mph
  • Sea Temp 40°f
  • Air Temp 34°f
  • Sea Pressure 1021.6mb

More Historic Weather Station data

Upgrade to MSW Pro to gain access to the past 30 days of data for over 8000 Wavebouys and Weather Stations around the globe.

Join Pro

Comparision Forecast

View Surf forecast
   
Sat 11/29 5:50am  -   -  3s 2
mph
1021.6mb 40f 34f
4:50am  -   -  4s 2
mph
1021.9mb 41f 34f
3:50am  -   -  4s  -  2 mph 1022mb 41f 33f
2:50am  -   -  3s  -  2 mph 1022.3mb 41f 34f
1:50am  -   -  4s 2 4 mph 1022.4mb 41f 34f
12:50am  -   -  4s 2 4 mph 1022.8mb 41f 34f
Fri 11/28 11:50pm 0.3ft  -  4s 2 4 mph 1023.1mb 41f 34f
10:50pm 0.3ft  -  4s 4 7 mph 1023.6mb 41f 34f
9:50pm 0.3ft  -  4s 2 4 mph 1024mb 41f 34f
8:50pm 0.7ft  -  5s 2 4 mph 1024.5mb 41f 33f
7:50pm  -   -  4s 2 4 mph 1024.4mb 42f 33f
6:50pm  -   -  3s 4 7 mph 1024.2mb 41f 33f
5:50pm  -   -  3s 2 4 mph 1023.9mb 43f 32f
4:50pm 0.3ft  -  3s 2
mph
1023.9mb 42f 31f
3:50pm 0.3ft  -  3s 4 7 mph 1023.6mb 43f 32f
2:50pm 0.7ft  -  3s 4 7 mph 1023.5mb 43f 33f
1:50pm 0.3ft  -  4s 9 11 mph 1023.2mb 43f 33f
12:50pm 0.3ft  -  4s 7
mph
1023.6mb 43f 33f
11:50am 0.3ft  -  4s 4 7 mph 1023.5mb 43f 33f
10:50am  -   -  4s 2 4 mph 1023.8mb 43f 32f
9:50am  -   -  4s 4 7 mph 1023.6mb 43f 32f
8:50am  -   -  4s 4 7 mph 1023.3mb 43f 32f
7:50am  -   -  4s 2 4 mph 1023mb 43f 33f
6:50am  -   -  4s 2 4 mph 1022.5mb 43f 33f
5:50am  -   -  4s 4
mph
1022.2mb 43f 33f
4:50am  -   -  4s 2 4 mph 1021.9mb 43f 33f
3:50am  -   -  4s 4 7 mph 1021.9mb 42f 32f
2:50am  -   -  4s 2 4 mph 1021.7mb 43f 33f
1:50am  -   -  4s 4 7 mph 1021.6mb 42f 33f
12:50am 0.3ft  -  4s 4 7 mph 1021.7mb 42f 33f
Thu 11/27 11:50pm  -   -  4s 2 4 mph 1021.7mb 42f 35f
10:50pm  -   -  4s 2
mph
1022.2mb 42f 35f
9:50pm  -   -  4s 4
mph
1022.6mb 42f 34f
8:50pm 0.3ft  -  4s 4 7 mph 1022.9mb 43f 33f
7:50pm  -   -  3s 7
mph
1023.2mb 43f 33f
6:50pm  -   -  3s 4 7 mph 1023mb 43f 32f
5:50pm  -   -  3s 4 7 mph 1022.7mb 42f 33f
4:50pm  -   -  2s 4 7 mph 1022.3mb 42f 32f
3:50pm  -   -  2s 4 7 mph 1022.3mb 42f 33f
2:50pm 0.3ft  -  2s 7 9 mph 1022.6mb 42f 33f
1:50pm 0.7ft  -  2s 7 11 mph 1022.8mb 42f 33f
12:50pm 0.7ft  -  2s 13 20 mph 1023mb 42f 33f
11:50am 0.7ft  -  2s 13 18 mph 1023.1mb 42f 33f
10:50am 0.7ft  -  3s 7 11 mph 1023.4mb 42f 34f
9:50am 0.3ft  -  3s 4 9 mph 1023.9mb 42f 34f
8:50am 0.7ft  -  3s 11 20 mph 1023.8mb 42f 34f
7:50am 0.7ft  -  2s 13 18 mph 1024mb 42f 34f
6:50am 0.3ft  -  2s 13 20 mph 1024.1mb 43f 34f
5:50am 0.7ft  -  2s 7 11 mph 1024mb 42f 35f
4:50am 0.7ft  -  2s 16 20 mph 1023.8mb 43f 35f
3:50am 0.7ft  -  2s 20 22 mph 1023.9mb 44f 36f
2:50am 0.7ft  -  2s 18 22 mph 1023.7mb 43f 36f
1:50am 0.7ft  -  2s 16 20 mph 1023.8mb 43f 36f
12:50am 1ft 2s 2s 13 18 mph 1023.7mb 42f 37f
Wed 11/26 11:50pm 1ft 2s 3s 13 20 mph 1024mb 41f 37f
10:50pm 1ft 3s 3s 7 13 mph 1024.4mb 42f 38f
9:50pm 0.7ft  -  3s 7 13 mph 1025.1mb 42f 37f
8:50pm 0.3ft  -  2s 7 9 mph 1025.5mb 41f 36f
7:50pm 0.3ft  -  2s 2 9 mph 1025.6mb 41f 35f
6:50pm  -   -  2s 4 7 mph 1025.6mb 42f 34f
5:50pm  -   -  2s 4 9 mph 1025.5mb 41f 34f
4:50pm  -   -  2s 9 11 mph 1025.6mb 41f 34f
3:50pm  -   -  3s 9 11 mph 1025.5mb 41f 33f
2:50pm  -   -  4s 4
mph
1025.3mb 40f 33f
1:50pm  -   -  4s  -  2 mph 1025.5mb 41f 32f
12:50pm  -   -  4s  -  2 mph 1025.7mb 41f 32f
11:50am  -   -  4s  -  2 mph 1026.1mb 41f 33f
10:50am  -   -  3s  -  2 mph 1026.3mb 43f 34f
9:50am  -   -  3s 4 9 mph 1026.3mb 43f 35f
8:50am  -   -  3s 4 7 mph 1026.5mb 43f 35f
7:50am  -   -  3s 4 9 mph 1026.4mb 43f 36f
6:50am  -   -  3s 4 7 mph 1025.8mb 43f 36f
5:50am  -   -  3s 7 11 mph 1025.5mb 43f 37f
4:50am  -   -  3s 4 7 mph 1025mb 42f 37f
3:50am  -   -  3s  -  2 mph 1024.5mb 42f 36f
2:50am  -   -  3s 4
mph
1024.4mb 41f 36f
1:50am  -   -  3s 9
mph
1023.9mb 41f 38f
12:50am  -   -  3s 11 13 mph 1023.4mb 42f 38f
Tue 11/25 11:50pm  -   -  3s  -  2 mph 1023.3mb 42f 40f
10:50pm  -   -  4s  -  2 mph 1023.2mb 42f 39f
9:50pm  -   -  4s 2 4 mph 1023.2mb 43f 39f
8:50pm  -   -  3s  -  2 mph 1023mb 42f 41f
7:50pm  -   -  3s 2 4 mph 1022.6mb 42f 38f
6:50pm  -   -  3s 4 7 mph 1021.9mb 42f 38f
5:50pm  -   -  3s 2
mph
1021mb 43f 38f
4:50pm  -   -  4s 2 4 mph 1020.3mb 43f 38f
3:50pm  -   -  3s  -  2 mph 1019.6mb 42f 38f
2:50pm  -   -  3s 4
mph
1018.8mb 41f 38f
1:50pm  -   -  3s 2 4 mph 1018mb 41f 38f
12:50pm  -   -  4s 2
mph
1017.5mb 41f 38f
11:50am  -   -  4s 2
mph
1016.8mb 42f 38f
10:50am  -   -  4s  -  2 mph 1016.4mb 42f 38f
9:50am  -   -  4s 4
mph
1015.9mb 42f 37f
8:50am  -   -  3s 4
mph
1015.1mb 43f 38f
7:50am  -   -  4s 4 7 mph 1014.4mb 43f 38f
6:50am  -   -  4s 4 7 mph 1013.6mb 43f 38f